Time;durP1;ratioP1;P1;durP2;ratioP2;P2;SDS_P1;SDS_P2;PMS_P1;PMS_P2;Temp;Humidity;BMP_temperature;BMP_pressure;BME280_temperature;BME280_humidity;BME280_pressure;Samples;Min_cycle;Max_cycle;Signal;HPM_P1;HPM_P2
2021/11/30 00:01:44;;;;;;;3.40;1.00;;;;;;;5.59;75.31;95132.38;5091512;28;20051;-78
2021/11/30 00:04:14;;;;;;;2.85;1.05;;;;;;;5.70;75.20;95127.16;5074481;28;20051;-77
2021/11/30 00:06:51;;;;;;;3.22;0.82;;;;;;;5.74;75.01;95103.63;5092590;28;20040;-76
2021/11/30 00:12:04;;;;;;;2.50;0.82;;;;;;;5.71;75.27;95074.56;5091730;28;20480;-77
2021/11/30 00:14:30;;;;;;;2.05;0.70;;;;;;;5.75;75.27;95067.25;5073572;28;20055;-79
2021/11/30 00:16:57;;;;;;;3.53;0.93;;;;;;;5.67;75.35;95048.16;5074903;28;20079;-81
2021/11/30 00:19:24;;;;;;;2.17;0.60;;;;;;;5.65;75.36;95028.00;5092137;28;20516;-80
2021/11/30 00:21:51;;;;;;;1.13;0.52;;;;;;;5.72;75.39;95019.97;5092613;28;20509;-82
2021/11/30 00:24:17;;;;;;;2.80;1.00;;;;;;;5.71;75.38;95009.50;5091037;28;20135;-79
2021/11/30 00:26:43;;;;;;;4.18;1.20;;;;;;;5.64;75.56;94993.91;5093116;28;20052;-82
2021/11/30 00:29:12;;;;;;;2.92;0.85;;;;;;;5.76;75.59;94968.56;5092067;28;20052;-79
2021/11/30 00:31:38;;;;;;;3.15;1.10;;;;;;;5.81;75.44;94963.63;5091595;28;20519;-79
2021/11/30 00:34:04;;;;;;;3.55;1.10;;;;;;;5.78;75.40;94945.38;5088140;28;20044;-79
2021/11/30 00:36:30;;;;;;;2.03;0.90;;;;;;;5.74;75.48;94941.81;5064061;28;20047;-79
2021/11/30 00:38:57;;;;;;;3.28;1.20;;;;;;;5.76;75.71;94923.25;5058639;28;20408;-79
2021/11/30 00:41:24;;;;;;;2.90;0.98;;;;;;;5.77;75.90;94913.22;5090818;28;20052;-79
2021/11/30 00:43:52;;;;;;;2.63;0.90;;;;;;;5.84;75.82;94883.50;5088251;28;20094;-78
2021/11/30 00:46:31;;;;;;;2.10;0.77;;;;;;;5.88;75.63;94894.41;5093279;28;20043;-79
2021/11/30 00:48:57;;;;;;;2.92;0.68;;;;;;;5.89;75.64;94879.69;5086501;28;20059;-79
2021/11/30 00:51:23;;;;;;;1.30;0.60;;;;;;;5.87;75.67;94854.88;5091774;28;20124;-78
2021/11/30 00:53:51;;;;;;;2.30;0.75;;;;;;;5.84;75.99;94839.38;5090106;28;20131;-80
2021/11/30 00:56:19;;;;;;;2.28;0.75;;;;;;;5.89;76.05;94836.31;5093689;28;20044;-80
2021/11/30 00:58:47;;;;;;;1.23;0.70;;;;;;;5.86;76.27;94818.09;5090999;28;20392;-80
2021/11/30 01:01:13;;;;;;;1.25;0.68;;;;;;;5.89;76.22;94811.94;5074340;28;20511;-79
2021/11/30 01:03:40;;;;;;;1.83;0.68;;;;;;;5.94;75.79;94803.50;5090953;28;20138;-80
2021/11/30 01:06:06;;;;;;;3.00;0.88;;;;;;;5.96;75.97;94791.13;5091995;28;20508;-80
2021/11/30 01:08:33;;;;;;;1.17;0.57;;;;;;;5.97;76.13;94762.09;5091849;28;20523;-79
2021/11/30 01:10:59;;;;;;;1.63;0.68;;;;;;;5.97;76.13;94771.00;5074067;28;20401;-78
2021/11/30 01:13:29;;;;;;;1.00;0.52;;;;;;;5.90;76.45;94743.81;5090336;28;20047;-78
2021/11/30 01:15:55;;;;;;;1.40;0.70;;;;;;;5.95;76.51;94731.88;5076269;28;20658;-78
2021/11/30 01:18:23;;;;;;;1.05;0.70;;;;;;;5.80;76.75;94710.00;5075432;28;20051;-78
2021/11/30 01:20:51;;;;;;;1.42;0.90;;;;;;;5.90;76.79;94724.06;5090347;28;20059;-78
2021/11/30 01:23:18;;;;;;;1.52;0.82;;;;;;;5.94;76.84;94720.25;5089603;28;20048;-78
2021/11/30 01:25:44;;;;;;;3.65;1.45;;;;;;;5.82;76.88;94677.91;5090456;28;20051;-79
2021/11/30 01:28:10;;;;;;;2.35;0.90;;;;;;;5.96;76.81;94681.94;5077338;28;20070;-78
2021/11/30 01:30:38;;;;;;;2.10;1.15;;;;;;;5.96;77.04;94660.25;5074254;28;20093;-78
2021/11/30 01:33:06;;;;;;;2.67;1.20;;;;;;;5.93;77.49;94663.69;5090564;28;20051;-83
2021/11/30 01:35:33;;;;;;;3.95;1.35;;;;;;;5.99;77.39;94650.56;5091633;28;20497;-78
2021/11/30 01:38:00;;;;;;;3.70;1.30;;;;;;;6.03;77.27;94633.22;5092248;28;20458;-78
2021/11/30 01:40:28;;;;;;;3.53;1.40;;;;;;;6.09;77.24;94637.19;5087522;28;20401;-77
2021/11/30 01:42:57;;;;;;;2.20;1.20;;;;;;;6.01;77.28;94608.44;5063019;28;20040;-77
2021/11/30 01:45:44;;;;;;;3.65;1.38;;;;;;;6.14;77.33;94610.88;5072161;28;20044;-77
2021/11/30 01:50:47;;;;;;;3.35;1.58;;;;;;;6.12;77.79;94592.25;5087210;28;20053;-77
2021/11/30 01:53:14;;;;;;;3.85;1.52;;;;;;;6.17;77.65;94580.31;5075571;28;20543;-77
2021/11/30 01:55:43;;;;;;;3.95;1.52;;;;;;;6.19;77.70;94567.16;5090266;28;20121;-77
2021/11/30 01:58:10;;;;;;;2.92;1.55;;;;;;;6.21;77.82;94571.06;5071227;28;20040;-77
2021/11/30 02:00:38;;;;;;;4.53;1.90;;;;;;;5.87;78.16;94518.81;5089381;28;20056;-77
2021/11/30 02:03:06;;;;;;;5.28;2.20;;;;;;;6.16;78.23;94551.63;5067912;28;20041;-79
2021/11/30 02:05:34;;;;;;;;;;;;;;;6.17;78.36;94545.84;5089902;28;20098;-77
2021/11/30 02:08:00;;;;;;;7.05;2.70;;;;;;;6.17;78.34;94535.00;5091767;28;19955;-78
2021/11/30 02:10:28;;;;;;;7.18;2.90;;;;;;;6.17;78.76;94520.66;5088059;28;20044;-77
2021/11/30 02:12:54;;;;;;;6.57;2.70;;;;;;;6.18;78.98;94516.78;5088793;28;20056;-78
2021/11/30 02:15:23;;;;;;;7.10;2.53;;;;;;;6.23;79.06;94538.13;5073041;28;20050;-79
2021/11/30 02:17:50;;;;;;;6.28;2.35;;;;;;;6.26;79.18;94531.97;5089046;28;20492;-78
2021/11/30 02:20:18;;;;;;;5.88;2.53;;;;;;;6.17;79.18;94510.59;5089662;28;20071;-79
2021/11/30 02:22:53;;;;;;;;;;;;;;;6.27;79.71;94513.75;5090501;28;20445;-78
2021/11/30 02:25:20;;;;;;;8.23;2.58;;;;;;;6.17;79.70;94491.63;5071246;28;20351;-78
2021/11/30 02:27:46;;;;;;;8.37;2.80;;;;;;;6.28;80.00;94497.13;5082387;28;20443;-78
2021/11/30 02:30:12;;;;;;;9.35;3.45;;;;;;;6.31;80.09;94490.94;5082181;28;20044;-78
2021/11/30 02:32:38;;;;;;;7.75;3.00;;;;;;;6.37;80.43;94488.66;5087416;28;20070;-79
2021/11/30 02:35:05;;;;;;;7.93;3.33;;;;;;;6.29;80.64;94459.91;5069940;28;20122;-77
2021/11/30 02:37:39;;;;;;;8.52;2.80;;;;;;;6.38;81.03;94471.97;5084241;28;20063;-79
2021/11/30 02:40:06;;;;;;;6.47;2.72;;;;;;;6.41;81.34;94462.31;5088291;28;20036;-79
2021/11/30 02:42:32;;;;;;;7.00;2.50;;;;;;;6.52;81.57;94470.50;5089582;28;20040;-80
2021/11/30 02:44:59;;;;;;;4.97;2.28;;;;;;;6.51;81.98;94467.03;5090881;28;20044;-80
2021/11/30 02:47:25;;;;;;;6.15;2.55;;;;;;;6.58;82.07;94473.66;5090336;28;20048;-80
2021/11/30 02:49:51;;;;;;;7.65;2.30;;;;;;;6.58;82.59;94466.31;5090833;28;20043;-80
2021/11/30 02:52:19;;;;;;;6.20;2.70;;;;;;;6.44;82.78;94439.09;5090969;28;20051;-81
2021/11/30 02:54:55;;;;;;;5.78;2.25;;;;;;;6.63;83.38;94457.00;5090778;28;20060;-81
2021/11/30 02:57:23;;;;;;;5.63;2.38;;;;;;;6.50;84.03;94434.84;5090873;28;20056;-81
2021/11/30 02:59:51;;;;;;;6.88;2.22;;;;;;;6.54;84.19;94446.50;5089369;28;20144;-81
2021/11/30 03:02:21;;;;;;;6.55;2.38;;;;;;;6.72;84.61;94471.03;5086280;28;20172;-80
2021/11/30 03:04:49;;;;;;;20.35;5.50;;;;;;;6.77;84.79;94467.16;5086747;28;20055;-80
2021/11/30 03:07:18;;;;;;;44.40;15.88;;;;;;;6.83;85.38;94468.34;5084312;28;20052;-79
2021/11/30 03:09:44;;;;;;;26.95;10.57;;;;;;;6.88;85.70;94468.00;5063950;28;20048;-80
2021/11/30 03:12:12;;;;;;;21.60;7.75;;;;;;;6.93;85.91;94470.34;5090567;28;20416;-80
2021/11/30 03:14:38;;;;;;;39.05;6.00;;;;;;;6.97;86.05;94470.38;5089461;28;21141;-80
2021/11/30 03:17:05;;;;;;;11.05;2.75;;;;;;;7.00;86.31;94471.53;5080615;28;20098;-79
2021/11/30 03:19:31;;;;;;;11.35;2.15;;;;;;;7.04;86.38;94478.53;5068899;28;20147;-79
2021/11/30 03:21:59;;;;;;;5.22;1.73;;;;;;;7.02;86.53;94477.34;5080317;28;20050;-79
2021/11/30 03:24:25;;;;;;;4.90;1.77;;;;;;;7.03;86.55;94481.66;5086205;28;20072;-79
2021/11/30 03:26:52;;;;;;;3.70;1.50;;;;;;;7.04;86.46;94486.69;5089808;28;20048;-79
2021/11/30 03:29:19;;;;;;;3.33;1.30;;;;;;;7.06;86.38;94489.03;5090443;28;20044;-79
2021/11/30 03:34:13;;;;;;;5.22;1.13;;;;;;;6.85;86.04;94482.31;5087533;28;19924;-78
2021/11/30 03:36:41;;;;;;;0.98;0.52;;;;;;;7.05;85.48;94512.66;5088310;28;20059;-79
2021/11/30 03:39:10;;;;;;;1.08;0.52;;;;;;;6.99;84.42;94465.34;5088888;28;20052;-78
2021/11/30 03:41:36;;;;;;;1.73;0.57;;;;;;;7.08;83.64;94538.28;5070655;28;20054;-77
2021/11/30 03:44:04;;;;;;;1.42;0.57;;;;;;;7.00;83.29;94480.47;5071197;28;20048;-78
2021/11/30 03:46:32;;;;;;;0.85;0.50;;;;;;;7.04;82.82;94521.22;5087493;28;20101;-79
2021/11/30 03:48:59;;;;;;;0.82;0.43;;;;;;;6.97;82.16;94559.16;5072012;28;20471;-79
2021/11/30 03:51:26;;;;;;;1.33;0.50;;;;;;;6.89;81.61;94514.91;5087450;28;20054;-79
2021/11/30 03:54:09;;;;;;;1.05;0.25;;;;;;;6.85;81.38;94542.03;5088277;28;20047;-78
2021/11/30 03:56:35;;;;;;;0.85;0.40;;;;;;;6.77;81.34;94613.72;5089251;28;20770;-76
2021/11/30 03:59:02;;;;;;;0.68;0.20;;;;;;;6.61;80.18;94657.41;5088483;28;20068;-77
2021/11/30 04:01:28;;;;;;;0.65;0.40;;;;;;;6.66;80.49;94633.41;5087034;28;20047;-76
2021/11/30 04:03:56;;;;;;;0.63;0.28;;;;;;;6.64;80.75;94584.16;5088219;28;20050;-77
2021/11/30 04:06:23;;;;;;;2.00;0.40;;;;;;;6.55;80.96;94597.28;5085225;28;20152;-77
2021/11/30 04:08:52;;;;;;;1.98;0.47;;;;;;;6.48;81.12;94597.22;5082918;28;20044;-83
2021/11/30 04:11:21;;;;;;;0.52;0.40;;;;;;;6.46;80.54;94691.78;5079188;28;20144;-76
2021/11/30 04:13:48;;;;;;;1.05;0.40;;;;;;;6.27;79.05;94687.31;5082859;28;20048;-77
2021/11/30 04:16:15;;;;;;;0.17;0.17;;;;;;;6.20;79.48;94595.81;5070128;28;20040;-77
2021/11/30 04:18:41;;;;;;;0.30;0.22;;;;;;;6.14;79.31;94611.66;5086428;28;20531;-76
2021/11/30 04:21:08;;;;;;;2.33;0.45;;;;;;;5.94;78.80;94788.00;5085518;28;20105;-76
2021/11/30 04:23:35;;;;;;;2.00;0.47;;;;;;;5.93;77.69;94717.88;5068105;28;20431;-76
2021/11/30 04:26:01;;;;;;;1.10;0.30;;;;;;;5.75;77.57;94742.06;5085839;28;20090;-77
2021/11/30 07:59:36;;;;;;;4.35;0.90;;;;;;;3.67;69.52;95024.09;5122097;27;20423;-79
2021/11/30 08:02:03;;;;;;;2.72;0.95;;;;;;;3.67;69.18;95007.09;5109179;27;20056;-78
2021/11/30 08:04:29;;;;;;;2.08;0.70;;;;;;;3.70;69.60;94987.50;5107126;28;20046;-73
2021/11/30 08:06:55;;;;;;;2.95;1.02;;;;;;;3.68;69.68;94982.44;5109457;28;20051;-78
2021/11/30 08:09:21;;;;;;;3.10;0.93;;;;;;;3.74;70.73;94928.94;5110880;28;20048;-78
2021/11/30 08:11:47;;;;;;;5.00;1.05;;;;;;;3.62;71.85;95015.47;5110105;28;20101;-78
2021/11/30 08:14:15;;;;;;;2.83;0.90;;;;;;;3.41;71.99;94981.34;5084896;28;20036;-78
2021/11/30 08:16:43;;;;;;;2.75;0.88;;;;;;;3.22;71.60;94963.16;5100525;28;20071;-78
2021/11/30 08:19:09;;;;;;;;;;;;;;;3.22;71.04;95033.31;5097323;28;20492;-79
2021/11/30 08:21:35;;;;;;;1.65;0.60;;;;;;;3.02;70.22;95008.84;5106564;28;20023;-78
2021/11/30 08:24:01;;;;;;;3.20;0.85;;;;;;;3.04;69.55;95040.91;5103587;28;20134;-77
2021/11/30 08:26:27;;;;;;;4.85;0.88;;;;;;;3.05;68.98;95007.41;5099852;28;20040;-75
2021/11/30 08:28:53;;;;;;;1.20;0.60;;;;;;;3.05;68.20;95002.00;5103975;28;20068;-75
2021/11/30 08:31:19;;;;;;;1.00;0.70;;;;;;;3.04;68.09;95038.97;5087014;28;20513;-76
2021/11/30 08:33:48;;;;;;;3.45;1.13;;;;;;;3.06;68.60;95012.47;5089104;28;20048;-75
2021/11/30 08:36:14;;;;;;;0.95;0.68;;;;;;;2.97;70.24;94985.63;5099981;28;20416;-76
2021/11/30 08:38:41;;;;;;;4.77;1.63;;;;;;;2.86;71.64;95005.31;5096525;28;20056;-77
2021/11/30 08:41:07;;;;;;;3.70;0.90;;;;;;;2.67;72.11;95021.00;5105166;28;20560;-76
2021/11/30 08:43:33;;;;;;;5.75;1.23;;;;;;;2.69;72.73;94982.88;5100679;28;20052;-76
2021/11/30 08:46:00;;;;;;;4.57;1.10;;;;;;;2.68;71.54;94995.59;5103078;28;20500;-76
2021/11/30 08:48:27;;;;;;;4.03;0.88;;;;;;;2.53;71.64;95024.03;5094873;28;20045;-76
2021/11/30 08:50:58;;;;;;;1.67;0.70;;;;;;;2.43;70.97;95048.78;5102315;28;20496;-76
2021/11/30 08:53:25;;;;;;;2.13;0.77;;;;;;;2.45;70.64;94976.44;5101355;28;20302;-76
2021/11/30 08:55:51;;;;;;;2.10;0.80;;;;;;;2.47;69.62;95011.13;5084985;28;20040;-76
2021/11/30 08:58:17;;;;;;;3.35;0.90;;;;;;;2.48;69.19;94991.13;5100228;28;20125;-76
2021/11/30 09:00:43;;;;;;;2.35;0.75;;;;;;;2.37;69.34;94999.69;5084490;28;20047;-76
2021/11/30 09:03:10;;;;;;;1.77;0.80;;;;;;;2.31;69.86;94971.38;5090622;28;20058;-77
2021/11/30 09:05:36;;;;;;;3.13;1.20;;;;;;;2.45;69.89;94964.84;5088903;28;20067;-76
2021/11/30 09:08:04;;;;;;;3.80;1.35;;;;;;;2.45;70.50;95076.19;5090187;28;20075;-76
2021/11/30 09:10:30;;;;;;;2.63;1.05;;;;;;;2.43;70.29;95064.97;5089605;28;20044;-76
2021/11/30 09:12:56;;;;;;;3.55;1.00;;;;;;;2.33;70.16;94988.00;5088078;28;20045;-75
2021/11/30 09:15:22;;;;;;;3.47;1.10;;;;;;;2.32;70.02;94989.13;5083644;28;20044;-76
2021/11/30 09:17:51;;;;;;;2.80;1.10;;;;;;;2.33;69.75;95023.03;5083458;28;20386;-75
2021/11/30 09:20:17;;;;;;;4.20;1.17;;;;;;;2.40;69.89;94974.75;5096826;28;20104;-75
2021/11/30 09:22:43;;;;;;;2.97;1.00;;;;;;;2.48;70.08;94964.16;5093702;28;20513;-75
2021/11/30 09:25:11;;;;;;;2.38;0.90;;;;;;;2.43;69.71;94969.81;5075179;28;20048;-75
2021/11/30 09:27:43;;;;;;;1.77;1.00;;;;;;;2.35;69.99;94936.47;5093709;28;20072;-72
2021/11/30 09:30:19;;;;;;;6.25;1.17;;;;;;;2.26;69.57;94975.13;5056922;28;20588;-70
2021/11/30 09:32:46;;;;;;;4.28;0.93;;;;;;;2.20;69.44;94994.56;5112651;28;20044;-73
2021/11/30 09:35:15;;;;;;;5.47;1.57;;;;;;;2.16;69.78;94962.09;5103015;28;20050;-71
2021/11/30 09:37:42;;;;;;;7.32;1.90;;;;;;;2.20;69.90;94946.06;5080835;28;20135;-69
2021/11/30 09:40:10;;;;;;;;;;;;;;;2.25;70.03;94976.22;5091566;28;20043;-70
2021/11/30 09:42:38;;;;;;;5.53;1.42;;;;;;;2.19;69.99;94972.19;5083351;28;19930;-71
2021/11/30 09:45:07;;;;;;;3.40;1.15;;;;;;;2.06;70.44;95029.91;5088038;28;20123;-70
2021/11/30 09:47:34;;;;;;;3.92;1.38;;;;;;;1.95;71.20;94973.78;5087733;28;20054;-70
2021/11/30 09:50:00;;;;;;;3.17;1.02;;;;;;;1.91;71.00;94951.31;5087772;28;20052;-71
2021/11/30 09:52:27;;;;;;;5.70;1.15;;;;;;;1.96;71.00;94966.47;5086303;28;20046;-71
2021/11/30 09:54:53;;;;;;;4.80;1.10;;;;;;;2.03;70.78;94947.88;5089077;28;20502;-72
2021/11/30 09:57:19;;;;;;;2.00;0.93;;;;;;;1.97;70.30;94927.66;5067333;28;20040;-71
2021/11/30 09:59:48;;;;;;;4.35;0.98;;;;;;;1.95;70.37;94930.69;5092336;28;20048;-70
2021/11/30 10:02:15;;;;;;;3.58;1.27;;;;;;;1.93;70.69;94924.06;5090842;28;20489;-70
2021/11/30 10:04:42;;;;;;;3.72;1.23;;;;;;;1.94;70.75;95004.53;5091009;28;20044;-71
2021/11/30 10:07:08;;;;;;;12.18;1.50;;;;;;;1.93;70.03;94976.00;5087855;28;20052;-68
2021/11/30 10:09:34;;;;;;;2.92;1.23;;;;;;;1.89;70.40;94950.13;5091225;28;20169;-70
2021/11/30 10:12:02;;;;;;;4.68;1.20;;;;;;;1.82;70.32;94915.66;5092327;28;20060;-73
2021/11/30 10:14:34;;;;;;;3.47;1.15;;;;;;;1.73;70.52;94913.09;5085624;28;20553;-73
2021/11/30 10:17:13;;;;;;;3.03;1.20;;;;;;;1.73;70.52;94920.38;5081977;28;20417;-72
2021/11/30 10:19:40;;;;;;;3.38;1.20;;;;;;;1.63;71.02;94951.22;5091020;28;20052;-73
2021/11/30 10:22:06;;;;;;;4.60;1.23;;;;;;;1.60;71.54;94933.81;5085043;28;20531;-73
2021/11/30 10:24:34;;;;;;;2.15;1.00;;;;;;;1.63;71.64;94935.06;5088502;28;20289;-72
2021/11/30 10:27:01;;;;;;;4.70;1.45;;;;;;;1.55;72.50;94942.91;5085138;28;20074;-73
2021/11/30 10:29:29;;;;;;;2.80;1.02;;;;;;;1.51;72.74;94950.06;5093269;28;20051;-72
2021/11/30 10:31:56;;;;;;;4.45;1.58;;;;;;;1.52;72.93;94926.66;5092398;28;20119;-73
2021/11/30 10:34:26;;;;;;;3.00;1.13;;;;;;;1.46;73.84;94938.75;5086980;28;20068;-73
2021/11/30 10:36:54;;;;;;;2.83;1.20;;;;;;;1.40;74.77;94916.63;5074242;28;20081;-73
2021/11/30 10:39:24;;;;;;;3.28;1.58;;;;;;;1.38;74.56;94900.03;5092117;28;20447;-73
2021/11/30 10:41:51;;;;;;;13.85;3.63;;;;;;;1.32;74.56;94931.00;5091515;28;20470;-73
2021/11/30 10:44:28;;;;;;;7.32;2.38;;;;;;;1.29;74.93;94891.31;5094245;28;20040;-74
2021/11/30 10:47:07;;;;;;;3.70;1.50;;;;;;;1.17;75.74;94918.94;5077187;28;20044;-74
2021/11/30 10:49:42;;;;;;;4.78;1.60;;;;;;;1.09;76.06;94923.31;5094863;28;20044;-76
2021/11/30 10:52:08;;;;;;;4.63;1.38;;;;;;;1.08;76.01;94976.34;5095573;28;20044;-73
2021/11/30 10:54:36;;;;;;;5.25;1.45;;;;;;;0.98;75.09;94912.19;5094795;28;20478;-72
2021/11/30 10:57:03;;;;;;;8.35;1.38;;;;;;;0.96;74.49;94950.19;5096749;28;20067;-74
2021/11/30 10:59:30;;;;;;;4.45;1.40;;;;;;;0.94;74.41;94947.03;5092287;28;20051;-75
2021/11/30 11:01:57;;;;;;;5.13;1.40;;;;;;;0.95;74.70;94915.53;5103743;28;20052;-75
2021/11/30 11:04:29;;;;;;;6.50;1.55;;;;;;;0.88;74.50;94897.25;5114573;28;20054;-72
2021/11/30 11:07:06;;;;;;;3.88;1.20;;;;;;;0.80;74.37;94944.63;5088996;28;20047;-73
2021/11/30 11:09:46;;;;;;;3.15;1.13;;;;;;;0.80;74.33;94930.41;5073893;28;20093;-72
2021/11/30 11:12:23;;;;;;;5.70;1.05;;;;;;;0.68;73.96;95020.66;5092179;28;20047;-71
2021/11/30 11:14:49;;;;;;;1.17;0.68;;;;;;;0.75;73.56;94907.19;5092064;28;20055;-72
2021/11/30 11:17:27;;;;;;;5.93;1.33;;;;;;;0.72;74.04;94904.38;5093220;28;20071;-73
2021/11/30 11:19:54;;;;;;;3.95;1.55;;;;;;;0.83;73.87;94879.44;5090320;28;20047;-72
2021/11/30 11:22:23;;;;;;;5.72;1.15;;;;;;;0.75;73.98;94877.63;5090187;28;20516;-72
2021/11/30 11:24:50;;;;;;;5.28;1.50;;;;;;;0.68;73.88;94934.63;5084893;28;20113;-73
2021/11/30 11:27:17;;;;;;;7.05;1.10;;;;;;;0.76;73.76;94905.28;5087831;28;20044;-72
2021/11/30 11:29:44;;;;;;;4.50;1.43;;;;;;;0.71;74.46;94898.22;5092836;28;20032;-71
2021/11/30 11:32:11;;;;;;;1.70;1.00;;;;;;;0.73;74.30;94893.31;5097859;28;20392;-73
2021/11/30 11:34:38;;;;;;;5.40;1.35;;;;;;;0.62;74.17;94906.34;5095504;28;20130;-71
2021/11/30 11:37:09;;;;;;;1.52;0.98;;;;;;;0.61;74.49;94918.22;5082605;28;20063;-71
2021/11/30 11:39:37;;;;;;;2.83;1.05;;;;;;;0.63;74.79;94888.34;5074488;28;20044;-71
2021/11/30 11:42:05;;;;;;;8.35;1.88;;;;;;;0.67;75.11;94894.63;5092113;28;20408;-72
2021/11/30 11:44:30;;;;;;;;;;;;;;;0.54;76.05;94869.59;5093375;28;20040;-71
2021/11/30 11:47:01;;;;;;;4.15;1.15;;;;;;;0.49;75.85;94910.13;5088556;28;19924;-71
2021/11/30 11:49:27;;;;;;;8.43;1.48;;;;;;;0.42;75.87;94865.75;5091297;28;20071;-71
2021/11/30 11:51:55;;;;;;;5.75;1.25;;;;;;;0.31;76.90;94904.09;5068558;28;20483;-77
2021/11/30 11:54:23;;;;;;;;;;;;;;;0.21;77.10;95010.03;5092112;28;20110;-75
2021/11/30 11:56:56;;;;;;;1.58;0.90;;;;;;;0.14;77.26;94844.78;5088069;28;19930;-75
2021/11/30 11:59:27;;;;;;;5.68;1.23;;;;;;;-0.09;77.69;94906.09;5090051;28;20059;-73
2021/11/30 12:02:12;;;;;;;1.98;0.82;;;;;;;-0.01;77.64;94976.97;5089247;28;20461;-73
2021/11/30 12:04:41;;;;;;;3.97;1.10;;;;;;;-0.09;77.03;94894.56;5090984;28;20063;-75
2021/11/30 12:07:07;;;;;;;2.13;0.70;;;;;;;-0.08;77.12;94942.59;5084202;28;20424;-73
2021/11/30 12:09:34;;;;;;;2.00;0.70;;;;;;;-0.08;77.02;94886.22;5091221;28;20039;-74
2021/11/30 12:12:16;;;;;;;7.28;1.08;;;;;;;-0.09;77.50;94919.50;5090714;28;20048;-75
2021/11/30 12:14:45;;;;;;;3.38;1.20;;;;;;;-0.05;78.21;94893.59;5088736;28;20121;-75
2021/11/30 12:17:15;;;;;;;3.47;1.08;;;;;;;-0.22;78.69;94924.03;5090778;28;20052;-73
2021/11/30 12:19:44;;;;;;;3.60;1.00;;;;;;;-0.09;79.17;94919.50;5083577;28;20048;-73
2021/11/30 12:22:14;;;;;;;1.98;1.05;;;;;;;-0.09;79.34;94937.53;5068600;28;20135;-73
2021/11/30 12:24:42;;;;;;;3.75;1.10;;;;;;;-0.18;79.11;94949.09;5053641;28;20420;-74
2021/11/30 12:27:41;;;;;;;1.40;0.82;;;;;;;-0.29;79.11;94959.41;5078859;28;20071;-74
2021/11/30 12:30:09;;;;;;;3.67;1.10;;;;;;;-0.30;79.32;94968.59;5089694;28;20052;-73
2021/11/30 12:32:38;;;;;;;5.90;1.30;;;;;;;-0.26;78.80;94979.47;5089622;28;20066;-73
2021/11/30 12:35:09;;;;;;;1.10;0.65;;;;;;;-0.51;78.26;94984.59;5076741;28;20522;-75
2021/11/30 12:37:37;;;;;;;2.28;0.85;;;;;;;-0.43;77.14;94916.72;5097537;28;20044;-73
2021/11/30 12:40:05;;;;;;;;;;;;;;;-0.49;76.48;94986.97;5098460;28;20048;-73
2021/11/30 12:42:51;;;;;;;2.50;0.82;;;;;;;-0.54;75.44;94877.94;5094224;28;20386;-73
2021/11/30 12:45:42;;;;;;;3.95;0.95;;;;;;;-0.43;75.10;94980.31;5094903;28;20457;-73
2021/11/30 12:48:16;;;;;;;1.15;0.45;;;;;;;-0.63;74.10;94949.59;5089967;28;20054;-72
2021/11/30 12:50:43;;;;;;;1.27;0.57;;;;;;;-0.49;74.17;94978.94;5093490;28;20055;-74
2021/11/30 12:53:09;;;;;;;1.10;0.60;;;;;;;-0.63;74.08;94953.09;5078238;28;20040;-73
2021/11/30 12:55:44;;;;;;;5.25;0.95;;;;;;;-0.64;74.93;94964.13;5078580;28;20138;-74
2021/11/30 12:58:44;;;;;;;4.45;0.88;;;;;;;-0.72;75.78;94869.97;5091142;28;20036;-72
2021/11/30 13:01:14;;;;;;;6.13;1.10;;;;;;;-0.64;75.66;94923.88;5090809;28;20048;-74
2021/11/30 13:03:41;;;;;;;3.17;0.80;;;;;;;-0.85;75.69;94962.16;5091662;28;20457;-73
2021/11/30 13:06:07;;;;;;;1.97;0.70;;;;;;;-0.83;75.46;94906.28;5092613;28;20512;-73
2021/11/30 13:09:00;;;;;;;2.58;1.00;;;;;;;-0.72;74.98;95011.31;5102311;28;20078;-73
2021/11/30 13:11:28;;;;;;;2.72;0.80;;;;;;;-0.76;74.12;94997.00;5082004;28;20093;-73
2021/11/30 13:13:58;;;;;;;7.32;0.85;;;;;;;-0.86;72.94;95036.47;5117905;28;20048;-74
2021/11/30 13:16:26;;;;;;;3.78;1.08;;;;;;;-0.76;73.27;94911.97;5095449;28;20036;-72
2021/11/30 13:19:02;;;;;;;2.72;1.30;;;;;;;-0.68;74.34;94880.06;5089614;28;20045;-73
2021/11/30 13:21:35;;;;;;;5.00;1.40;;;;;;;-0.65;75.07;94914.28;5066947;28;20036;-71
2021/11/30 13:24:31;;;;;;;7.13;1.10;;;;;;;-0.67;75.89;94935.25;5091458;28;20050;-71
2021/11/30 13:27:08;;;;;;;2.33;1.00;;;;;;;-0.77;76.31;94971.28;5081693;28;20229;-72
2021/11/30 13:29:34;;;;;;;6.93;1.63;;;;;;;-0.70;76.37;94946.66;5081111;28;20051;-75
2021/11/30 13:32:04;;;;;;;7.57;1.90;;;;;;;-0.72;76.69;94946.94;5091681;28;20467;-74
2021/11/30 13:34:30;;;;;;;13.00;1.40;;;;;;;-0.79;76.64;94973.50;5087077;28;20040;-74
2021/11/30 13:36:56;;;;;;;10.48;1.60;;;;;;;-0.87;77.77;94954.41;5094607;28;20050;-73
2021/11/30 13:39:23;;;;;;;7.63;1.90;;;;;;;-0.77;77.79;94945.25;5090262;28;20068;-78
2021/11/30 13:41:52;;;;;;;17.63;2.10;;;;;;;-1.00;76.27;94966.13;5092671;28;20135;-78
2021/11/30 13:44:19;;;;;;;14.88;2.42;;;;;;;-1.08;75.71;94929.38;5100612;28;20052;-77
2021/11/30 13:46:45;;;;;;;11.48;2.95;;;;;;;-0.81;75.71;94956.94;5092116;28;20415;-74
2021/11/30 13:49:13;;;;;;;8.27;2.47;;;;;;;-0.84;74.73;95017.34;5087774;28;20420;-76
2021/11/30 13:51:48;;;;;;;10.40;2.47;;;;;;;-0.97;73.88;94994.19;5094590;28;20071;-76
2021/11/30 13:54:17;;;;;;;9.63;2.58;;;;;;;-1.07;73.13;95000.66;5088733;28;20127;-75
2021/11/30 13:57:05;;;;;;;13.27;2.30;;;;;;;-1.19;73.03;94995.94;5090211;28;20044;-76
2021/11/30 13:59:57;;;;;;;6.93;1.85;;;;;;;-1.30;73.15;94968.69;5084989;28;20047;-73
2021/11/30 14:02:34;;;;;;;12.35;2.47;;;;;;;-1.53;72.97;95010.91;5086645;28;20044;-75
2021/11/30 14:05:02;;;;;;;8.80;2.22;;;;;;;-1.53;72.85;94968.06;5093043;28;20044;-75
2021/11/30 14:07:30;;;;;;;8.38;1.90;;;;;;;-1.65;73.22;95004.28;5097223;28;20130;-74
2021/11/30 14:09:59;;;;;;;10.50;2.47;;;;;;;-1.57;73.11;95056.28;5094107;28;20044;-75
2021/11/30 14:12:26;;;;;;;6.72;1.88;;;;;;;-1.68;73.36;95045.09;5093795;28;20047;-78
2021/11/30 14:14:54;;;;;;;11.23;2.67;;;;;;;-1.82;73.87;94997.00;5093652;28;20510;-77
2021/11/30 14:17:39;;;;;;;8.13;2.50;;;;;;;-1.93;74.49;94968.97;5091291;28;20055;-77
2021/11/30 14:20:34;;;;;;;10.90;2.10;;;;;;;-2.35;74.65;94951.38;5088756;28;20048;-78
2021/11/30 14:23:30;;;;;;;;;;;;;;;;;;;;;
2021/11/30 14:27:34;;;;;;;7.20;2.27;;;;;;;-2.42;74.91;94986.59;5090775;28;20155;-77
2021/11/30 14:34:49;;;;;;;10.50;2.97;;;;;;;-2.32;74.35;94990.13;4956880;28;20423;-78
2021/11/30 14:37:43;;;;;;;7.57;2.53;;;;;;;-2.50;74.88;95006.06;5001309;28;20045;-78
2021/11/30 14:40:30;;;;;;;6.70;2.30;;;;;;;-2.63;74.61;95031.81;5091007;28;20071;-77
2021/11/30 14:43:11;;;;;;;11.27;2.87;;;;;;;-2.46;74.69;94995.56;5086769;28;20044;-76
2021/11/30 14:45:50;;;;;;;10.10;2.70;;;;;;;-2.21;75.07;95017.38;5092245;28;20048;-78
2021/11/30 14:48:58;;;;;;;;;;;;;;;;;;;;;
2021/11/30 14:51:49;;;;;;;7.87;2.63;;;;;;;-2.14;74.49;95109.50;5089161;28;20048;-78
2021/11/30 14:54:20;;;;;;;9.87;3.13;;;;;;;-2.46;74.28;95008.91;5087803;28;20048;-77
2021/11/30 14:56:48;;;;;;;12.90;3.00;;;;;;;-2.05;74.25;95037.28;5094797;28;20070;-79
2021/11/30 15:00:14;;;;;;;10.87;2.57;;;;;;;-2.11;74.03;95089.34;5094970;28;20146;-82
2021/11/30 15:02:40;;;;;;;8.43;2.50;;;;;;;-2.28;74.61;95104.22;5009212;28;20045;-77
2021/11/30 15:05:18;;;;;;;7.63;2.33;;;;;;;-2.33;74.64;95128.44;5075673;28;20081;-80
2021/11/30 15:07:44;;;;;;;8.60;2.53;;;;;;;-2.50;74.14;95061.47;5083710;28;20071;-79
2021/11/30 15:10:26;;;;;;;8.50;2.37;;;;;;;-2.72;74.90;95033.66;5074569;28;20067;-79
2021/11/30 15:13:07;;;;;;;5.60;1.97;;;;;;;-2.28;74.73;95106.91;5095807;28;20074;-78
2021/11/30 15:15:34;;;;;;;6.97;2.43;;;;;;;-2.14;74.39;95069.34;5089609;28;20569;-88
2021/11/30 15:18:15;;;;;;;7.72;2.53;;;;;;;-2.70;74.52;95010.09;5063840;28;20102;-84
2021/11/30 15:20:41;;;;;;;8.70;2.07;;;;;;;-2.22;74.25;95094.19;5085797;28;20064;-84
2021/11/30 15:23:11;;;;;;;7.47;2.20;;;;;;;-2.44;74.02;95068.25;5062990;28;20059;-82
2021/11/30 15:25:55;;;;;;;18.23;3.07;;;;;;;-2.09;73.10;95134.53;5069679;28;20646;-82
2021/11/30 15:28:21;;;;;;;6.83;2.10;;;;;;;-2.48;73.05;95107.41;5080032;28;20133;-82
2021/11/30 15:31:11;;;;;;;8.27;2.30;;;;;;;-2.19;73.10;95165.81;5064889;28;20085;-75
2021/11/30 15:34:32;;;;;;;6.47;2.20;;;;;;;-2.55;72.82;95051.69;5077694;28;20052;-74
2021/11/30 15:37:23;;;;;;;5.47;1.90;;;;;;;-2.16;72.43;95132.31;5085560;28;20071;-76
2021/11/30 15:40:29;;;;;;;7.00;2.30;;;;;;;-2.73;72.88;95155.84;5085687;28;20087;-75
2021/11/30 15:43:01;;;;;;;6.90;2.23;;;;;;;-2.21;72.42;95154.63;5007408;28;20577;-74